Time,TemperatureF,DewpointF,PressureIn,WindDirection,WindDirectionDegrees,WindSpeedMPH,WindSpeedGustMPH,Humidity,HourlyPrecipIn,Conditions,Clouds,dailyrainin,SoftwareType,DateUTC
2013-07-25 00:04:00,57.9,53.1,29.87,SSW,200,0.0,2.0,84,0.00,,,0.00,meteohub,2013-07-25 07:04:00,
2013-07-25 00:09:00,57.7,52.9,29.87,SSW,203,0.0,2.0,84,0.00,,,0.00,meteohub,2013-07-25 07:09:00,
2013-07-25 00:14:00,57.7,52.9,29.87,SSW,205,0.0,2.0,84,0.00,,,0.00,meteohub,2013-07-25 07:14:00,
2013-07-25 00:20:00,57.6,52.7,29.87,SSW,205,0.0,2.0,84,0.00,,,0.00,meteohub,2013-07-25 07:20:00,
2013-07-25 00:25:00,57.6,53.1,29.86,SW,230,0.0,1.0,85,0.00,,,0.00,meteohub,2013-07-25 07:25:00,
2013-07-25 00:30:00,57.4,52.9,29.86,SW,225,2.0,2.0,85,0.00,,,0.00,meteohub,2013-07-25 07:30:00,
2013-07-25 00:35:00,57.4,52.9,29.86,SW,215,1.0,3.0,85,0.00,,,0.00,meteohub,2013-07-25 07:35:00,
2013-07-25 00:40:00,57.2,52.7,29.86,SW,220,2.0,3.0,85,0.00,,,0.00,meteohub,2013-07-25 07:40:00,
2013-07-25 00:45:00,57.0,52.5,29.86,South,178,2.0,3.0,85,0.00,,,0.00,meteohub,2013-07-25 07:45:00,
2013-07-25 00:50:00,56.8,52.3,29.86,SW,217,1.0,2.0,85,0.00,,,0.00,meteohub,2013-07-25 07:50:00,
2013-07-25 00:55:00,56.7,52.5,29.86,SSE,167,0.0,3.0,86,0.00,,,0.00,meteohub,2013-07-25 07:55:00,
2013-07-25 01:00:00,56.5,52.3,29.86,South,176,0.0,3.0,86,0.00,,,0.00,meteohub,2013-07-25 08:00:00,
2013-07-25 01:05:00,56.3,52.5,29.86,SSW,210,1.0,3.0,87,0.00,,,0.00,meteohub,2013-07-25 08:05:00,
2013-07-25 01:10:00,56.1,52.3,29.86,SSW,211,0.0,3.0,87,0.00,,,0.00,meteohub,2013-07-25 08:10:00,
2013-07-25 01:15:00,56.1,52.3,29.86,SSW,211,0.0,1.0,87,0.00,,,0.00,meteohub,2013-07-25 08:15:00,
2013-07-25 01:20:00,56.1,52.3,29.86,SW,223,0.0,1.0,87,0.00,,,0.00,meteohub,2013-07-25 08:20:00,
2013-07-25 01:25:00,55.9,52.2,29.86,SW,223,0.0,2.0,87,0.00,,,0.00,meteohub,2013-07-25 08:25:00,
2013-07-25 01:30:00,55.9,52.5,29.86,SW,223,0.0,2.0,88,0.00,,,0.00,meteohub,2013-07-25 08:30:00,
2013-07-25 01:35:00,55.8,52.3,29.86,SW,223,0.0,2.0,88,0.00,,,0.00,meteohub,2013-07-25 08:35:00,
2013-07-25 01:40:00,55.8,52.3,29.86,SW,229,1.0,1.0,88,0.00,,,0.00,meteohub,2013-07-25 08:40:00,
2013-07-25 01:46:00,55.8,52.3,29.86,SW,223,0.0,1.0,88,0.00,,,0.00,meteohub,2013-07-25 08:46:00,
2013-07-25 01:51:00,55.8,52.3,29.86,SW,225,1.0,2.0,88,0.00,,,0.00,meteohub,2013-07-25 08:51:00,
2013-07-25 01:56:00,55.8,52.3,29.86,WSW,242,0.0,2.0,88,0.00,,,0.00,meteohub,2013-07-25 08:56:00,
2013-07-25 02:02:00,55.6,52.2,29.86,South,175,1.0,2.0,88,0.00,,,0.00,meteohub,2013-07-25 09:02:00,
2013-07-25 02:07:00,55.4,52.2,29.86,SSE,167,2.0,2.0,89,0.00,,,0.00,meteohub,2013-07-25 09:07:00,
2013-07-25 02:12:00,55.2,52.0,29.86,WSW,240,0.0,2.0,89,0.00,,,0.00,meteohub,2013-07-25 09:12:00,
2013-07-25 02:18:00,55.0,51.8,29.86,SW,229,2.0,2.0,89,0.00,,,0.00,meteohub,2013-07-25 09:18:00,
2013-07-25 02:23:00,54.9,52.0,29.87,SW,225,0.0,1.0,90,0.00,,,0.00,meteohub,2013-07-25 09:23:00,
2013-07-25 02:28:00,54.9,52.0,29.87,SSW,213,0.0,2.0,90,0.00,,,0.00,meteohub,2013-07-25 09:28:00,
2013-07-25 02:33:00,54.7,51.8,29.87,SW,217,0.0,2.0,90,0.00,,,0.00,meteohub,2013-07-25 09:33:00,
2013-07-25 02:36:00,54.7,51.8,29.87,SW,222,1.0,2.0,90,0.00,,,0.00,meteohub,2013-07-25 09:36:00,
2013-07-25 02:41:00,54.7,51.8,29.87,SSW,202,2.0,2.0,90,0.00,,,0.00,meteohub,2013-07-25 09:41:00,
2013-07-25 02:47:00,54.5,51.6,29.87,SSW,196,1.0,2.0,90,0.00,,,0.00,meteohub,2013-07-25 09:47:00,
2013-07-25 02:52:00,54.3,51.4,29.87,SE,145,1.0,2.0,90,0.00,,,0.00,meteohub,2013-07-25 09:52:00,
2013-07-25 02:57:00,54.3,51.8,29.87,SSW,205,1.0,2.0,91,0.00,,,0.00,meteohub,2013-07-25 09:57:00,
2013-07-25 03:02:00,54.1,51.6,29.87,SE,143,1.0,2.0,91,0.00,,,0.00,meteohub,2013-07-25 10:02:00,
2013-07-25 03:07:00,54.0,51.4,29.87,SSW,192,0.0,3.0,91,0.00,,,0.00,meteohub,2013-07-25 10:07:00,
2013-07-25 03:12:00,54.0,51.4,29.87,SSE,159,0.0,3.0,91,0.00,,,0.00,meteohub,2013-07-25 10:12:00,
2013-07-25 03:17:00,53.8,51.4,29.87,WSW,248,2.0,2.0,92,0.00,,,0.00,meteohub,2013-07-25 10:17:00,
2013-07-25 03:22:00,53.6,51.3,29.87,South,191,0.0,2.0,92,0.00,,,0.00,meteohub,2013-07-25 10:22:00,
2013-07-25 03:27:00,53.4,51.1,29.87,SW,226,1.0,2.0,92,0.00,,,0.00,meteohub,2013-07-25 10:27:00,
2013-07-25 03:32:00,53.4,51.4,29.87,SW,225,1.0,2.0,93,0.00,,,0.00,meteohub,2013-07-25 10:32:00,
2013-07-25 03:37:00,53.4,51.4,29.87,SW,232,1.0,2.0,93,0.00,,,0.00,meteohub,2013-07-25 10:37:00,
2013-07-25 03:42:00,53.2,51.3,29.87,SW,232,0.0,1.0,93,0.00,,,0.00,meteohub,2013-07-25 10:42:00,
2013-07-25 03:47:00,53.2,51.3,29.87,West,275,0.0,2.0,93,0.00,,,0.00,meteohub,2013-07-25 10:47:00,
2013-07-25 03:52:00,53.2,51.3,29.88,SSW,203,2.0,2.0,93,0.00,,,0.00,meteohub,2013-07-25 10:52:00,
2013-07-25 03:57:00,53.2,51.3,29.88,SSE,152,0.0,3.0,93,0.00,,,0.00,meteohub,2013-07-25 10:57:00,
2013-07-25 04:02:00,53.2,51.3,29.88,SW,235,0.0,3.0,93,0.00,,,0.00,meteohub,2013-07-25 11:02:00,
2013-07-25 04:07:00,53.4,51.8,29.88,South,175,0.0,2.0,94,0.00,,,0.00,meteohub,2013-07-25 11:07:00,
2013-07-25 04:12:00,53.4,51.8,29.88,South,174,1.0,2.0,94,0.00,,,0.00,meteohub,2013-07-25 11:12:00,
2013-07-25 04:18:00,53.4,51.4,29.88,SW,232,1.0,3.0,93,0.00,,,0.00,meteohub,2013-07-25 11:18:00,
2013-07-25 04:23:00,53.4,51.4,29.88,SW,226,0.0,3.0,93,0.00,,,0.00,meteohub,2013-07-25 11:23:00,
2013-07-25 04:28:00,53.4,51.4,29.88,SW,220,1.0,3.0,93,0.00,,,0.00,meteohub,2013-07-25 11:28:00,
2013-07-25 04:33:00,53.2,51.3,29.88,SW,223,4.0,4.0,93,0.00,,,0.00,meteohub,2013-07-25 11:33:00,
2013-07-25 04:38:00,53.2,51.6,29.88,SW,225,1.0,1.0,94,0.00,,,0.00,meteohub,2013-07-25 11:38:00,
2013-07-25 04:43:00,53.2,51.6,29.88,West,277,1.0,2.0,94,0.00,,,0.00,meteohub,2013-07-25 11:43:00,
2013-07-25 04:48:00,53.1,51.4,29.88,WSW,240,0.0,2.0,94,0.00,,,0.00,meteohub,2013-07-25 11:48:00,
2013-07-25 04:54:00,53.1,51.4,29.88,WSW,237,1.0,2.0,94,0.00,,,0.00,meteohub,2013-07-25 11:54:00,
2013-07-25 04:59:00,53.1,51.4,29.88,SSW,203,0.0,1.0,94,0.00,,,0.00,meteohub,2013-07-25 11:59:00,
2013-07-25 05:04:00,53.2,51.6,29.88,SW,221,0.0,1.0,94,0.00,,,0.00,meteohub,2013-07-25 12:04:00,
2013-07-25 05:09:00,53.2,51.6,29.88,SW,225,3.0,3.0,94,0.00,,,0.00,meteohub,2013-07-25 12:09:00,
2013-07-25 05:14:00,53.2,51.6,29.88,SW,223,0.0,2.0,94,0.00,,,0.00,meteohub,2013-07-25 12:14:00,
2013-07-25 05:19:00,53.2,51.6,29.88,WSW,238,2.0,2.0,94,0.00,,,0.00,meteohub,2013-07-25 12:19:00,
2013-07-25 05:25:00,53.2,51.6,29.88,SW,225,0.0,1.0,94,0.00,,,0.00,meteohub,2013-07-25 12:25:00,
2013-07-25 05:30:00,53.2,51.6,29.88,West,277,0.0,1.0,94,0.00,,,0.00,meteohub,2013-07-25 12:30:00,
2013-07-25 05:35:00,53.2,51.6,29.88,SSW,192,1.0,1.0,94,0.00,,,0.00,meteohub,2013-07-25 12:35:00,
2013-07-25 05:40:00,53.2,51.6,29.88,SW,230,1.0,2.0,94,0.00,,,0.00,meteohub,2013-07-25 12:40:00,
2013-07-25 05:46:00,53.2,51.6,29.88,SW,230,1.0,2.0,94,0.00,,,0.00,meteohub,2013-07-25 12:46:00,
2013-07-25 05:51:00,53.2,51.6,29.88,SW,229,1.0,2.0,94,0.00,,,0.00,meteohub,2013-07-25 12:51:00,
2013-07-25 05:56:00,53.2,51.6,29.89,SW,225,0.0,2.0,94,0.00,,,0.00,meteohub,2013-07-25 12:56:00,
2013-07-25 06:02:00,53.2,51.3,29.89,South,184,2.0,2.0,93,0.00,,,0.00,meteohub,2013-07-25 13:02:00,
2013-07-25 06:07:00,53.1,51.4,29.89,SW,226,2.0,4.0,94,0.00,,,0.00,meteohub,2013-07-25 13:07:00,
2013-07-25 06:12:00,53.1,51.4,29.89,West,264,0.0,4.0,94,0.00,,,0.00,meteohub,2013-07-25 13:12:00,
2013-07-25 06:17:00,53.1,51.4,29.89,West,261,0.0,3.0,94,0.00,,,0.00,meteohub,2013-07-25 13:17:00,
2013-07-25 06:22:00,53.1,51.4,29.89,SW,219,1.0,2.0,94,0.00,,,0.00,meteohub,2013-07-25 13:22:00,
2013-07-25 06:27:00,53.1,51.4,29.89,SW,221,1.0,3.0,94,0.00,,,0.00,meteohub,2013-07-25 13:27:00,
2013-07-25 06:32:00,52.9,51.3,29.89,WNW,283,2.0,3.0,94,0.00,,,0.00,meteohub,2013-07-25 13:32:00,
2013-07-25 06:37:00,52.9,51.3,29.90,SSW,200,0.0,3.0,94,0.00,,,0.00,meteohub,2013-07-25 13:37:00,
2013-07-25 06:42:00,52.9,51.3,29.90,SW,223,3.0,3.0,94,0.00,,,0.00,meteohub,2013-07-25 13:42:00,
2013-07-25 06:47:00,52.5,50.9,29.90,SW,221,1.0,5.0,94,0.00,,,0.00,meteohub,2013-07-25 13:47:00,
2013-07-25 06:52:00,52.5,50.9,29.90,West,267,1.0,5.0,94,0.00,,,0.00,meteohub,2013-07-25 13:52:00,
2013-07-25 06:58:00,52.5,50.9,29.90,SW,225,1.0,5.0,94,0.00,,,0.00,meteohub,2013-07-25 13:58:00,
2013-07-25 07:03:00,52.5,50.9,29.90,West,263,1.0,4.0,94,0.00,,,0.00,meteohub,2013-07-25 14:03:00,
2013-07-25 07:08:00,52.5,50.9,29.90,SW,218,0.0,3.0,94,0.00,,,0.00,meteohub,2013-07-25 14:08:00,
2013-07-25 07:14:00,52.7,51.1,29.90,SW,234,2.0,3.0,94,0.00,,,0.00,meteohub,2013-07-25 14:14:00,
2013-07-25 07:19:00,52.9,51.3,29.90,WSW,241,0.0,3.0,94,0.00,,,0.00,meteohub,2013-07-25 14:19:00,
2013-07-25 07:24:00,52.9,51.3,29.91,SSW,197,2.0,3.0,94,0.00,,,0.00,meteohub,2013-07-25 14:24:00,
2013-07-25 07:29:00,52.9,50.9,29.91,SW,229,1.0,3.0,93,0.00,,,0.00,meteohub,2013-07-25 14:29:00,
2013-07-25 07:34:00,52.7,50.7,29.91,SW,219,1.0,4.0,93,0.00,,,0.00,meteohub,2013-07-25 14:34:00,
2013-07-25 07:39:00,52.7,50.7,29.91,SW,233,2.0,4.0,93,0.00,,,0.00,meteohub,2013-07-25 14:39:00,
2013-07-25 07:44:00,52.9,50.9,29.91,SW,226,2.0,3.0,93,0.00,,,0.00,meteohub,2013-07-25 14:44:00,
2013-07-25 07:49:00,53.2,51.6,29.91,WSW,237,0.0,3.0,94,0.00,,,0.00,meteohub,2013-07-25 14:49:00,
2013-07-25 07:55:00,53.4,51.4,29.91,SW,214,0.0,2.0,93,0.00,,,0.00,meteohub,2013-07-25 14:55:00,
2013-07-25 08:00:00,53.4,51.4,29.91,WNW,283,1.0,2.0,93,0.00,,,0.00,meteohub,2013-07-25 15:00:00,
2013-07-25 08:05:00,53.4,51.4,29.91,SE,136,1.0,2.0,93,0.00,,,0.00,meteohub,2013-07-25 15:05:00,
2013-07-25 08:10:00,53.8,51.4,29.92,SSE,152,0.0,2.0,92,0.00,,,0.00,meteohub,2013-07-25 15:10:00,
2013-07-25 08:15:00,54.1,51.8,29.92,South,169,0.0,3.0,92,0.00,,,0.00,meteohub,2013-07-25 15:15:00,
2013-07-25 08:20:00,54.5,52.0,29.92,WSW,250,0.0,3.0,91,0.00,,,0.00,meteohub,2013-07-25 15:20:00,
2013-07-25 08:25:00,54.7,51.8,29.92,SSW,205,0.0,3.0,90,0.00,,,0.00,meteohub,2013-07-25 15:25:00,
2013-07-25 08:30:00,54.9,52.0,29.92,WSW,257,2.0,4.0,90,0.00,,,0.00,meteohub,2013-07-25 15:30:00,
2013-07-25 08:35:00,55.2,52.0,29.92,South,188,1.0,4.0,89,0.00,,,0.00,meteohub,2013-07-25 15:35:00,
2013-07-25 08:41:00,55.2,51.8,29.93,SSW,202,0.0,3.0,88,0.00,,,0.00,meteohub,2013-07-25 15:41:00,
2013-07-25 08:46:00,55.8,52.3,29.93,SSW,211,0.0,3.0,88,0.00,,,0.00,meteohub,2013-07-25 15:46:00,
2013-07-25 08:51:00,56.3,52.5,29.93,South,176,0.0,3.0,87,0.00,,,0.00,meteohub,2013-07-25 15:51:00,
2013-07-25 08:56:00,56.5,52.3,29.93,SW,230,1.0,2.0,86,0.00,,,0.00,meteohub,2013-07-25 15:56:00,
2013-07-25 09:01:00,56.1,52.0,29.93,West,279,3.0,5.0,86,0.00,,,0.00,meteohub,2013-07-25 16:01:00,
2013-07-25 09:06:00,56.1,52.3,29.94,SSW,211,0.0,5.0,87,0.00,,,0.00,meteohub,2013-07-25 16:06:00,
2013-07-25 09:11:00,57.4,53.2,29.94,SW,232,1.0,3.0,86,0.00,,,0.00,meteohub,2013-07-25 16:11:00,
2013-07-25 09:16:00,58.1,52.9,29.94,NW,307,2.0,3.0,83,0.00,,,0.00,meteohub,2013-07-25 16:16:00,
2013-07-25 09:21:00,58.6,53.4,29.94,SW,217,2.0,4.0,83,0.00,,,0.00,meteohub,2013-07-25 16:21:00,
2013-07-25 09:26:00,59.5,53.8,29.94,West,271,1.0,4.0,81,0.00,,,0.00,meteohub,2013-07-25 16:26:00,
2013-07-25 09:31:00,59.5,53.8,29.94,SE,144,1.0,3.0,81,0.00,,,0.00,meteohub,2013-07-25 16:31:00,
2013-07-25 09:36:00,60.3,53.8,29.94,WNW,303,2.0,3.0,79,0.00,,,0.00,meteohub,2013-07-25 16:36:00,
2013-07-25 09:41:00,60.6,54.1,29.94,WNW,284,1.0,6.0,79,0.00,,,0.00,meteohub,2013-07-25 16:41:00,
2013-07-25 09:46:00,61.3,54.1,29.94,NE,39,1.0,6.0,77,0.00,,,0.00,meteohub,2013-07-25 16:46:00,
2013-07-25 09:51:00,62.1,54.0,29.93,SSW,205,1.0,5.0,75,0.00,,,0.00,meteohub,2013-07-25 16:51:00,
2013-07-25 09:57:00,62.2,54.1,29.93,West,272,3.0,5.0,75,0.00,,,0.00,meteohub,2013-07-25 16:57:00,
2013-07-25 10:02:00,61.9,53.8,29.93,SSW,194,1.0,5.0,75,0.00,,,0.00,meteohub,2013-07-25 17:02:00,
2013-07-25 10:07:00,62.1,54.0,29.93,NW,304,2.0,5.0,75,0.00,,,0.00,meteohub,2013-07-25 17:07:00,
2013-07-25 10:12:00,62.1,54.3,29.93,West,259,3.0,4.0,76,0.00,,,0.00,meteohub,2013-07-25 17:12:00,
2013-07-25 10:17:00,63.0,54.9,29.93,SW,217,1.0,4.0,75,0.00,,,0.00,meteohub,2013-07-25 17:17:00,
2013-07-25 10:22:00,63.9,54.7,29.93,SSE,152,3.0,5.0,72,0.00,,,0.00,meteohub,2013-07-25 17:22:00,
2013-07-25 10:27:00,64.4,54.9,29.93,South,176,3.0,5.0,71,0.00,,,0.00,meteohub,2013-07-25 17:27:00,
2013-07-25 10:32:00,64.9,55.4,29.93,NW,321,1.0,6.0,71,0.00,,,0.00,meteohub,2013-07-25 17:32:00,
2013-07-25 10:37:00,64.8,55.2,29.94,SW,229,4.0,6.0,71,0.00,,,0.00,meteohub,2013-07-25 17:37:00,
2013-07-25 10:42:00,65.5,55.8,29.94,WSW,245,1.0,6.0,71,0.00,,,0.00,meteohub,2013-07-25 17:42:00,
2013-07-25 10:47:00,65.7,55.6,29.94,SW,223,2.0,6.0,70,0.00,,,0.00,meteohub,2013-07-25 17:47:00,
2013-07-25 10:52:00,65.8,55.4,29.94,SSW,199,2.0,6.0,69,0.00,,,0.00,meteohub,2013-07-25 17:52:00,
2013-07-25 10:57:00,65.5,55.0,29.94,SE,146,3.0,10.0,69,0.00,,,0.00,meteohub,2013-07-25 17:57:00,
2013-07-25 11:02:00,65.5,55.4,29.94,WSW,240,2.0,10.0,70,0.00,,,0.00,meteohub,2013-07-25 18:02:00,
2013-07-25 11:07:00,65.8,55.8,29.94,WSW,248,3.0,10.0,70,0.00,,,0.00,meteohub,2013-07-25 18:07:00,
2013-07-25 11:12:00,66.6,55.6,29.94,SE,142,0.0,7.0,68,0.00,,,0.00,meteohub,2013-07-25 18:12:00,
2013-07-25 11:17:00,67.3,55.9,29.94,SW,225,1.0,6.0,67,0.00,,,0.00,meteohub,2013-07-25 18:17:00,
2013-07-25 11:23:00,67.6,56.3,29.94,SSE,163,2.0,5.0,67,0.00,,,0.00,meteohub,2013-07-25 18:23:00,
2013-07-25 11:28:00,68.5,56.3,29.94,SSW,194,3.0,5.0,65,0.00,,,0.00,meteohub,2013-07-25 18:28:00,
2013-07-25 11:33:00,69.1,56.8,29.94,West,273,3.0,5.0,65,0.00,,,0.00,meteohub,2013-07-25 18:33:00,
2013-07-25 11:38:00,69.3,57.0,29.94,SSW,205,1.0,5.0,65,0.00,,,0.00,meteohub,2013-07-25 18:38:00,
2013-07-25 11:43:00,70.2,56.5,29.94,SW,221,4.0,5.0,62,0.00,,,0.00,meteohub,2013-07-25 18:43:00,
2013-07-25 11:48:00,70.5,56.8,29.94,SW,220,1.0,6.0,62,0.00,,,0.00,meteohub,2013-07-25 18:48:00,
2013-07-25 11:53:00,71.1,56.8,29.93,SSW,202,2.0,6.0,61,0.00,,,0.00,meteohub,2013-07-25 18:53:00,
2013-07-25 11:58:00,71.2,57.0,29.93,South,184,2.0,6.0,61,0.00,,,0.00,meteohub,2013-07-25 18:58:00,
2013-07-25 12:03:00,71.2,56.7,29.93,SW,221,2.0,9.0,60,0.00,,,0.00,meteohub,2013-07-25 19:03:00,
2013-07-25 12:08:00,71.4,56.8,29.93,SSE,164,2.0,9.0,60,0.00,,,0.00,meteohub,2013-07-25 19:08:00,
2013-07-25 12:13:00,72.0,56.8,29.93,SSW,211,4.0,6.0,59,0.00,,,0.00,meteohub,2013-07-25 19:13:00,
2013-07-25 12:18:00,72.0,56.8,29.93,West,277,3.0,5.0,59,0.00,,,0.00,meteohub,2013-07-25 19:18:00,
2013-07-25 12:23:00,72.7,57.9,29.93,SSE,167,2.0,5.0,60,0.00,,,0.00,meteohub,2013-07-25 19:23:00,
2013-07-25 12:28:00,73.0,56.8,29.93,SE,140,1.0,5.0,57,0.00,,,0.00,meteohub,2013-07-25 19:28:00,
2013-07-25 12:34:00,73.2,57.0,29.93,WSW,240,2.0,7.0,57,0.00,,,0.00,meteohub,2013-07-25 19:34:00,
2013-07-25 12:39:00,73.9,57.7,29.93,South,172,2.0,7.0,57,0.00,,,0.00,meteohub,2013-07-25 19:39:00,
2013-07-25 12:44:00,73.9,57.7,29.93,SE,138,1.0,6.0,57,0.00,,,0.00,meteohub,2013-07-25 19:44:00,
2013-07-25 12:49:00,74.3,57.6,29.93,SSE,159,3.0,10.0,56,0.00,,,0.00,meteohub,2013-07-25 19:49:00,
2013-07-25 12:54:00,74.5,57.7,29.93,SSW,207,3.0,10.0,56,0.00,,,0.00,meteohub,2013-07-25 19:54:00,
2013-07-25 12:59:00,74.1,57.4,29.93,South,171,5.0,10.0,56,0.00,,,0.00,meteohub,2013-07-25 19:59:00,
2013-07-25 13:04:00,73.8,57.0,29.93,South,176,2.0,10.0,56,0.00,,,0.00,meteohub,2013-07-25 20:04:00,
2013-07-25 13:09:00,73.9,57.2,29.92,SSW,202,1.0,10.0,56,0.00,,,0.00,meteohub,2013-07-25 20:09:00,
2013-07-25 13:14:00,73.8,57.6,29.92,SSW,205,4.0,11.0,57,0.00,,,0.00,meteohub,2013-07-25 20:14:00,
2013-07-25 13:19:00,73.9,57.2,29.92,SSE,156,4.0,11.0,56,0.00,,,0.00,meteohub,2013-07-25 20:19:00,
2013-07-25 13:24:00,74.3,57.0,29.92,SSW,204,4.0,11.0,55,0.00,,,0.00,meteohub,2013-07-25 20:24:00,
2013-07-25 13:29:00,74.8,57.6,29.92,South,176,2.0,9.0,55,0.00,,,0.00,meteohub,2013-07-25 20:29:00,
2013-07-25 13:34:00,74.8,57.6,29.92,SSW,199,4.0,9.0,55,0.00,,,0.00,meteohub,2013-07-25 20:34:00,
2013-07-25 13:39:00,75.0,57.2,29.92,WNW,290,1.0,10.0,54,0.00,,,0.00,meteohub,2013-07-25 20:39:00,
2013-07-25 13:44:00,75.6,57.7,29.92,West,277,2.0,10.0,54,0.00,,,0.00,meteohub,2013-07-25 20:44:00,
2013-07-25 13:50:00,75.6,57.7,29.92,West,264,2.0,6.0,54,0.00,,,0.00,meteohub,2013-07-25 20:50:00,
2013-07-25 13:55:00,75.6,57.7,29.92,SW,233,3.0,6.0,54,0.00,,,0.00,meteohub,2013-07-25 20:55:00,
2013-07-25 14:00:00,75.9,57.6,29.92,SW,234,2.0,7.0,53,0.00,,,0.00,meteohub,2013-07-25 21:00:00,
2013-07-25 14:05:00,75.7,56.8,29.92,SW,221,2.0,7.0,52,0.00,,,0.00,meteohub,2013-07-25 21:05:00,
2013-07-25 14:10:00,75.2,57.4,29.91,SW,236,3.0,7.0,54,0.00,,,0.00,meteohub,2013-07-25 21:10:00,
2013-07-25 14:15:00,75.7,57.9,29.91,SSE,153,5.0,7.0,54,0.00,,,0.00,meteohub,2013-07-25 21:15:00,
2013-07-25 14:20:00,75.9,57.0,29.91,South,182,3.0,7.0,52,0.00,,,0.00,meteohub,2013-07-25 21:20:00,
2013-07-25 14:25:00,75.6,57.2,29.91,South,171,2.0,9.0,53,0.00,,,0.00,meteohub,2013-07-25 21:25:00,
2013-07-25 14:30:00,76.1,57.2,29.91,SSW,202,4.0,9.0,52,0.00,,,0.00,meteohub,2013-07-25 21:30:00,
2013-07-25 14:36:00,76.5,57.6,29.91,SSW,211,3.0,9.0,52,0.00,,,0.00,meteohub,2013-07-25 21:36:00,
2013-07-25 14:41:00,76.3,56.8,29.91,SSW,198,3.0,10.0,51,0.00,,,0.00,meteohub,2013-07-25 21:41:00,
2013-07-25 14:46:00,75.9,57.0,29.91,West,267,6.0,10.0,52,0.00,,,0.00,meteohub,2013-07-25 21:46:00,
2013-07-25 14:51:00,75.7,56.8,29.90,South,182,5.0,10.0,52,0.00,,,0.00,meteohub,2013-07-25 21:51:00,
2013-07-25 14:56:00,76.5,57.0,29.90,SW,217,3.0,10.0,51,0.00,,,0.00,meteohub,2013-07-25 21:56:00,
2013-07-25 15:01:00,76.3,57.4,29.90,West,265,1.0,10.0,52,0.00,,,0.00,meteohub,2013-07-25 22:01:00,
2013-07-25 15:06:00,76.5,57.6,29.90,West,267,2.0,7.0,52,0.00,,,0.00,meteohub,2013-07-25 22:06:00,
2013-07-25 15:11:00,76.6,57.2,29.90,West,272,4.0,7.0,51,0.00,,,0.00,meteohub,2013-07-25 22:11:00,
2013-07-25 15:16:00,76.6,57.2,29.90,West,265,2.0,7.0,51,0.00,,,0.00,meteohub,2013-07-25 22:16:00,
2013-07-25 15:22:00,76.3,56.8,29.90,WSW,245,3.0,7.0,51,0.00,,,0.00,meteohub,2013-07-25 22:22:00,
2013-07-25 15:28:00,76.3,56.8,29.90,West,275,3.0,9.0,51,0.00,,,0.00,meteohub,2013-07-25 22:28:00,
2013-07-25 15:33:00,75.7,56.3,29.90,SW,225,5.0,8.0,51,0.00,,,0.00,meteohub,2013-07-25 22:33:00,
2013-07-25 15:38:00,75.6,56.7,29.90,SW,221,2.0,7.0,52,0.00,,,0.00,meteohub,2013-07-25 22:38:00,
2013-07-25 15:43:00,76.5,56.5,29.90,South,178,5.0,7.0,50,0.00,,,0.00,meteohub,2013-07-25 22:43:00,
2013-07-25 15:48:00,75.7,56.3,29.90,SE,138,3.0,7.0,51,0.00,,,0.00,meteohub,2013-07-25 22:48:00,
2013-07-25 15:53:00,75.6,56.1,29.89,SSW,205,7.0,8.0,51,0.00,,,0.00,meteohub,2013-07-25 22:53:00,
2013-07-25 15:58:00,75.9,56.5,29.89,SSW,207,3.0,9.0,51,0.00,,,0.00,meteohub,2013-07-25 22:58:00,
2013-07-25 16:04:00,76.1,56.7,29.89,SW,227,7.0,9.0,51,0.00,,,0.00,meteohub,2013-07-25 23:04:00,
2013-07-25 16:09:00,75.6,56.7,29.89,SW,216,3.0,9.0,52,0.00,,,0.00,meteohub,2013-07-25 23:09:00,
2013-07-25 16:14:00,75.9,56.5,29.89,SSE,152,4.0,9.0,51,0.00,,,0.00,meteohub,2013-07-25 23:14:00,
2013-07-25 16:19:00,76.3,56.3,29.89,WSW,253,2.0,9.0,50,0.00,,,0.00,meteohub,2013-07-25 23:19:00,
2013-07-25 16:24:00,76.1,56.1,29.89,South,180,2.0,8.0,50,0.00,,,0.00,meteohub,2013-07-25 23:24:00,
2013-07-25 16:29:00,75.7,55.8,29.89,WSW,256,5.0,8.0,50,0.00,,,0.00,meteohub,2013-07-25 23:29:00,
2013-07-25 16:34:00,75.0,55.6,29.89,SSW,195,2.0,10.0,51,0.00,,,0.00,meteohub,2013-07-25 23:34:00,
2013-07-25 16:39:00,74.5,55.8,29.89,WNW,296,2.0,11.0,52,0.00,,,0.00,meteohub,2013-07-25 23:39:00,
2013-07-25 16:44:00,74.5,56.3,29.89,SSW,202,1.0,11.0,53,0.00,,,0.00,meteohub,2013-07-25 23:44:00,
2013-07-25 16:49:00,75.0,56.1,29.89,WNW,284,2.0,11.0,52,0.00,,,0.00,meteohub,2013-07-25 23:49:00,
2013-07-25 16:54:00,75.0,55.6,29.89,West,264,3.0,11.0,51,0.00,,,0.00,meteohub,2013-07-25 23:54:00,
2013-07-25 16:59:00,74.3,55.0,29.89,WSW,242,2.0,9.0,51,0.00,,,0.00,meteohub,2013-07-25 23:59:00,
2013-07-25 17:04:00,74.5,56.3,29.89,SSE,152,3.0,12.0,53,0.00,,,0.00,meteohub,2013-07-26 00:04:00,
2013-07-25 17:09:00,73.6,55.4,29.89,SW,221,3.0,12.0,53,0.00,,,0.00,meteohub,2013-07-26 00:09:00,
2013-07-25 17:14:00,73.9,56.3,29.89,SW,226,2.0,11.0,54,0.00,,,0.00,meteohub,2013-07-26 00:14:00,
2013-07-25 17:19:00,73.9,55.8,29.89,SW,225,2.0,11.0,53,0.00,,,0.00,meteohub,2013-07-26 00:19:00,
2013-07-25 17:24:00,74.5,56.3,29.89,South,174,3.0,9.0,53,0.00,,,0.00,meteohub,2013-07-26 00:24:00,
2013-07-25 17:30:00,73.6,55.4,29.89,WSW,246,1.0,12.0,53,0.00,,,0.00,meteohub,2013-07-26 00:30:00,
2013-07-25 17:35:00,73.4,55.8,29.89,WSW,238,1.0,13.0,54,0.00,,,0.00,meteohub,2013-07-26 00:35:00,
2013-07-25 17:40:00,73.0,55.9,29.89,West,280,2.0,13.0,55,0.00,,,0.00,meteohub,2013-07-26 00:40:00,
2013-07-25 17:45:00,72.7,55.0,29.89,South,187,4.0,10.0,54,0.00,,,0.00,meteohub,2013-07-26 00:45:00,
2013-07-25 17:50:00,72.1,55.0,29.89,SW,234,5.0,10.0,55,0.00,,,0.00,meteohub,2013-07-26 00:50:00,
2013-07-25 17:55:00,71.2,55.2,29.89,SSE,148,6.0,11.0,57,0.00,,,0.00,meteohub,2013-07-26 00:55:00,
2013-07-25 18:00:00,71.1,55.0,29.89,SW,229,4.0,11.0,57,0.00,,,0.00,meteohub,2013-07-26 01:00:00,
2013-07-25 18:05:00,71.1,55.0,29.89,NNW,345,4.0,11.0,57,0.00,,,0.00,meteohub,2013-07-26 01:05:00,
2013-07-25 18:10:00,70.3,54.3,29.90,SSE,152,3.0,9.0,57,0.00,,,0.00,meteohub,2013-07-26 01:10:00,
2013-07-25 18:15:00,70.5,55.0,29.90,South,173,1.0,9.0,58,0.00,,,0.00,meteohub,2013-07-26 01:15:00,
2013-07-25 18:21:00,70.3,54.9,29.90,WNW,290,4.0,9.0,58,0.00,,,0.00,meteohub,2013-07-26 01:21:00,
2013-07-25 18:26:00,70.2,55.2,29.90,SSE,159,2.0,6.0,59,0.00,,,0.00,meteohub,2013-07-26 01:26:00,
2013-07-25 18:31:00,69.6,54.7,29.90,SSE,148,4.0,6.0,59,0.00,,,0.00,meteohub,2013-07-26 01:31:00,
2013-07-25 18:36:00,69.3,54.9,29.91,SW,217,1.0,9.0,60,0.00,,,0.00,meteohub,2013-07-26 01:36:00,
2013-07-25 18:41:00,68.5,54.1,29.91,SSE,154,1.0,7.0,60,0.00,,,0.00,meteohub,2013-07-26 01:41:00,
2013-07-25 18:46:00,67.8,54.0,29.91,WSW,239,5.0,7.0,61,0.00,,,0.00,meteohub,2013-07-26 01:46:00,
2013-07-25 18:51:00,67.3,53.8,29.91,SW,221,3.0,8.0,62,0.00,,,0.00,meteohub,2013-07-26 01:51:00,
2013-07-25 18:56:00,66.9,54.0,29.91,WNW,288,2.0,8.0,63,0.00,,,0.00,meteohub,2013-07-26 01:56:00,
2013-07-25 19:01:00,66.9,54.0,29.91,WNW,284,1.0,6.0,63,0.00,,,0.00,meteohub,2013-07-26 02:01:00,
2013-07-25 19:06:00,66.4,53.4,29.92,WSW,244,6.0,6.0,63,0.00,,,0.00,meteohub,2013-07-26 02:06:00,
2013-07-25 19:11:00,65.7,53.6,29.92,SW,225,1.0,9.0,65,0.00,,,0.00,meteohub,2013-07-26 02:11:00,
2013-07-25 19:16:00,65.1,53.1,29.92,West,269,5.0,9.0,65,0.00,,,0.00,meteohub,2013-07-26 02:16:00,
2013-07-25 19:21:00,64.9,53.2,29.92,SW,236,3.0,6.0,66,0.00,,,0.00,meteohub,2013-07-26 02:21:00,
2013-07-25 19:26:00,64.9,53.2,29.92,West,267,1.0,6.0,66,0.00,,,0.00,meteohub,2013-07-26 02:26:00,
2013-07-25 19:31:00,64.0,52.9,29.92,NW,308,1.0,6.0,67,0.00,,,0.00,meteohub,2013-07-26 02:31:00,
2013-07-25 19:36:00,63.3,53.1,29.92,SW,225,5.0,6.0,69,0.00,,,0.00,meteohub,2013-07-26 02:36:00,
2013-07-25 19:41:00,62.8,52.9,29.92,SW,225,1.0,6.0,70,0.00,,,0.00,meteohub,2013-07-26 02:41:00,
2013-07-25 19:47:00,62.4,52.9,29.92,West,268,3.0,5.0,71,0.00,,,0.00,meteohub,2013-07-26 02:47:00,
2013-07-25 19:52:00,62.2,52.7,29.92,SW,214,2.0,5.0,71,0.00,,,0.00,meteohub,2013-07-26 02:52:00,
2013-07-25 19:57:00,62.6,53.1,29.92,WSW,242,0.0,5.0,71,0.00,,,0.00,meteohub,2013-07-26 02:57:00,
2013-07-25 20:02:00,62.1,52.9,29.92,SW,226,2.0,5.0,72,0.00,,,0.00,meteohub,2013-07-26 03:02:00,
2013-07-25 20:07:00,61.3,52.7,29.93,SW,216,2.0,6.0,73,0.00,,,0.00,meteohub,2013-07-26 03:07:00,
2013-07-25 20:12:00,60.4,52.2,29.93,SW,220,1.0,6.0,74,0.00,,,0.00,meteohub,2013-07-26 03:12:00,
2013-07-25 20:17:00,59.9,52.3,29.93,WSW,252,1.0,6.0,76,0.00,,,0.00,meteohub,2013-07-26 03:17:00,
2013-07-25 20:22:00,59.4,52.2,29.93,SSE,149,1.0,5.0,77,0.00,,,0.00,meteohub,2013-07-26 03:22:00,
2013-07-25 20:27:00,59.2,52.3,29.93,WSW,256,1.0,5.0,78,0.00,,,0.00,meteohub,2013-07-26 03:27:00,
2013-07-25 20:33:00,58.5,52.0,29.93,SSW,206,0.0,4.0,79,0.00,,,0.00,meteohub,2013-07-26 03:33:00,
2013-07-25 20:38:00,57.9,51.8,29.94,SW,229,1.0,4.0,80,0.00,,,0.00,meteohub,2013-07-26 03:38:00,
2013-07-25 20:43:00,57.6,51.4,29.94,SE,138,0.0,4.0,80,0.00,,,0.00,meteohub,2013-07-26 03:43:00,
2013-07-25 20:48:00,57.4,52.0,29.94,WSW,244,1.0,4.0,82,0.00,,,0.00,meteohub,2013-07-26 03:48:00,
2013-07-25 20:53:00,57.0,51.6,29.94,SSW,196,1.0,3.0,82,0.00,,,0.00,meteohub,2013-07-26 03:53:00,
2013-07-25 20:58:00,56.8,51.8,29.94,SW,221,1.0,3.0,83,0.00,,,0.00,meteohub,2013-07-26 03:58:00,
2013-07-25 21:01:00,56.7,51.6,29.94,WSW,240,2.0,2.0,83,0.00,,,0.00,meteohub,2013-07-26 04:01:00,
2013-07-25 21:02:00,56.7,51.6,29.94,West,261,1.0,2.0,83,0.00,,,0.00,meteohub,2013-07-26 04:02:00,
2013-07-25 21:03:00,56.7,51.6,29.94,WSW,240,1.0,2.0,83,0.00,,,0.00,meteohub,2013-07-26 04:03:00,
2013-07-25 21:05:00,56.5,51.6,29.94,West,279,1.0,3.0,84,0.00,,,0.00,meteohub,2013-07-26 04:05:00,
2013-07-25 21:10:00,56.1,51.6,29.95,West,275,1.0,3.0,85,0.00,,,0.00,meteohub,2013-07-26 04:10:00,
2013-07-25 21:16:00,56.1,51.6,29.95,SW,221,1.0,3.0,85,0.00,,,0.00,meteohub,2013-07-26 04:16:00,
2013-07-25 21:21:00,55.8,51.6,29.95,WSW,244,1.0,3.0,86,0.00,,,0.00,meteohub,2013-07-26 04:21:00,
2013-07-25 21:26:00,55.4,51.6,29.96,West,272,1.0,4.0,87,0.00,,,0.00,meteohub,2013-07-26 04:26:00,
2013-07-25 21:31:00,55.0,51.6,29.96,WSW,251,0.0,5.0,88,0.00,,,0.00,meteohub,2013-07-26 04:31:00,
2013-07-25 21:36:00,54.9,51.4,29.96,SW,225,1.0,5.0,88,0.00,,,0.00,meteohub,2013-07-26 04:36:00,
2013-07-25 21:41:00,54.9,51.4,29.96,SW,222,0.0,5.0,88,0.00,,,0.00,meteohub,2013-07-26 04:41:00,
2013-07-25 21:46:00,54.7,51.3,29.96,WSW,242,1.0,4.0,88,0.00,,,0.00,meteohub,2013-07-26 04:46:00,
2013-07-25 21:51:00,54.5,51.3,29.97,West,259,0.0,4.0,89,0.00,,,0.00,meteohub,2013-07-26 04:51:00,
2013-07-25 21:56:00,54.3,51.1,29.97,WSW,248,1.0,3.0,89,0.00,,,0.00,meteohub,2013-07-26 04:56:00,
2013-07-25 22:01:00,54.1,51.3,29.97,WNW,287,2.0,3.0,90,0.00,,,0.00,meteohub,2013-07-26 05:01:00,
2013-07-25 22:06:00,54.0,51.1,29.97,WNW,283,2.0,3.0,90,0.00,,,0.00,meteohub,2013-07-26 05:06:00,
2013-07-25 22:11:00,53.8,50.9,29.97,SW,229,0.0,3.0,90,0.00,,,0.00,meteohub,2013-07-26 05:11:00,
2013-07-25 22:16:00,53.8,51.3,29.97,SW,230,1.0,3.0,91,0.00,,,0.00,meteohub,2013-07-26 05:16:00,
2013-07-25 22:21:00,53.8,51.3,29.97,West,276,0.0,3.0,91,0.00,,,0.00,meteohub,2013-07-26 05:21:00,
2013-07-25 22:26:00,53.8,51.3,29.97,South,173,0.0,3.0,91,0.00,,,0.00,meteohub,2013-07-26 05:26:00,
2013-07-25 22:31:00,53.8,51.3,29.97,West,271,1.0,3.0,91,0.00,,,0.00,meteohub,2013-07-26 05:31:00,
2013-07-25 22:36:00,53.8,51.4,29.98,WSW,258,1.0,3.0,92,0.00,,,0.00,meteohub,2013-07-26 05:36:00,
2013-07-25 22:41:00,53.8,51.4,29.98,West,273,0.0,3.0,92,0.00,,,0.00,meteohub,2013-07-26 05:41:00,
2013-07-25 22:47:00,53.8,51.4,29.98,SW,233,0.0,3.0,92,0.00,,,0.00,meteohub,2013-07-26 05:47:00,
2013-07-25 22:52:00,53.8,51.4,29.98,SW,229,2.0,4.0,92,0.00,,,0.00,meteohub,2013-07-26 05:52:00,
2013-07-25 22:57:00,53.6,51.3,29.98,SSE,168,2.0,5.0,92,0.00,,,0.00,meteohub,2013-07-26 05:57:00,
2013-07-25 23:02:00,53.6,51.3,29.98,South,188,1.0,5.0,92,0.00,,,0.00,meteohub,2013-07-26 06:02:00,
2013-07-25 23:07:00,53.6,51.3,29.97,SW,233,2.0,4.0,92,0.00,,,0.00,meteohub,2013-07-26 06:07:00,
2013-07-25 23:12:00,53.6,51.3,29.97,WSW,240,2.0,4.0,92,0.00,,,0.00,meteohub,2013-07-26 06:12:00,
2013-07-25 23:17:00,53.4,51.1,29.97,West,268,1.0,4.0,92,0.00,,,0.00,meteohub,2013-07-26 06:17:00,
2013-07-25 23:22:00,53.6,51.6,29.97,West,268,0.0,3.0,93,0.00,,,0.00,meteohub,2013-07-26 06:22:00,
2013-07-25 23:27:00,53.4,51.1,29.97,WNW,284,1.0,3.0,92,0.00,,,0.00,meteohub,2013-07-26 06:27:00,
2013-07-25 23:32:00,53.4,51.1,29.97,SW,230,2.0,3.0,92,0.00,,,0.00,meteohub,2013-07-26 06:32:00,
2013-07-25 23:37:00,53.4,51.1,29.97,SW,229,1.0,3.0,92,0.00,,,0.00,meteohub,2013-07-26 06:37:00,
2013-07-25 23:42:00,53.2,51.3,29.97,SW,225,1.0,3.0,93,0.00,,,0.00,meteohub,2013-07-26 06:42:00,
2013-07-25 23:47:00,53.2,51.3,29.97,SW,223,0.0,3.0,93,0.00,,,0.00,meteohub,2013-07-26 06:47:00,
2013-07-25 23:52:00,53.2,51.3,29.97,SW,229,0.0,4.0,93,0.00,,,0.00,meteohub,2013-07-26 06:52:00,
2013-07-25 23:57:00,53.2,51.3,29.97,West,263,0.0,4.0,93,0.00,,,0.00,meteohub,2013-07-26 06:57:00,